Time;durP1;ratioP1;P1;durP2;ratioP2;P2;SDS_P1;SDS_P2;PMS_P1;PMS_P2;Temp;Humidity;BMP_temperature;BMP_pressure;BME280_temperature;BME280_humidity;BME280_pressure;Samples;Min_cycle;Max_cycle;Signal;HPM_P1;HPM_P2
2024/01/26 00:01:22;;;;;;;27.10;7.63;;;4.80;99.90;;;;;;5060966;28;20819;-78
2024/01/26 00:03:51;;;;;;;23.87;6.53;;;4.80;99.90;;;;;;5064976;28;20310;-78
2024/01/26 00:06:17;;;;;;;31.07;7.47;;;4.80;99.90;;;;;;5052562;28;21210;-79
2024/01/26 00:08:44;;;;;;;24.53;7.40;;;4.80;99.90;;;;;;5074237;28;20587;-79
2024/01/26 00:11:15;;;;;;;25.17;7.07;;;4.80;99.90;;;;;;5078267;28;20297;-79
2024/01/26 00:13:42;;;;;;;28.20;7.50;;;4.80;99.90;;;;;;5084400;28;20761;-78
2024/01/26 00:16:08;;;;;;;21.73;7.67;;;4.80;99.90;;;;;;5065304;28;20220;-79
2024/01/26 00:18:35;;;;;;;21.90;7.50;;;4.90;99.90;;;;;;5072773;28;20247;-78
2024/01/26 00:21:04;;;;;;;26.63;7.27;;;4.90;99.90;;;;;;5053425;28;20255;-78
2024/01/26 00:23:31;;;;;;;26.60;7.70;;;4.90;99.90;;;;;;5061044;28;20752;-78
2024/01/26 00:25:58;;;;;;;27.60;7.93;;;4.90;99.90;;;;;;5054415;28;20718;-79
2024/01/26 00:28:25;;;;;;;27.10;7.00;;;4.90;99.90;;;;;;5056667;28;20853;-78
2024/01/26 00:30:52;;;;;;;24.37;7.73;;;5.00;99.90;;;;;;5081731;28;20741;-78
2024/01/26 00:33:19;;;;;;;27.47;7.47;;;5.00;99.90;;;;;;5070300;28;20574;-79
2024/01/26 00:35:45;;;;;;;24.07;7.40;;;5.00;99.90;;;;;;5067400;28;20227;-78
2024/01/26 00:38:14;;;;;;;26.67;7.53;;;5.00;99.90;;;;;;5073572;28;20698;-79
2024/01/26 00:40:41;;;;;;;23.70;7.67;;;5.00;99.90;;;;;;5059459;28;20247;-79
2024/01/26 00:43:08;;;;;;;27.43;7.23;;;5.00;99.90;;;;;;5063366;28;20228;-79
2024/01/26 00:45:35;;;;;;;27.43;7.13;;;5.00;99.90;;;;;;5056350;28;20708;-79
2024/01/26 00:48:02;;;;;;;23.07;7.50;;;5.00;99.90;;;;;;5077407;28;20302;-79
2024/01/26 00:50:29;;;;;;;24.43;7.50;;;5.00;99.90;;;;;;5064182;28;20239;-80
2024/01/26 00:52:56;;;;;;;22.90;6.67;;;5.00;99.90;;;;;;5064737;28;20857;-79
2024/01/26 00:55:29;;;;;;;27.03;8.40;;;5.00;99.90;;;;;;5068293;28;21634;-79
2024/01/26 00:57:56;;;;;;;24.73;7.80;;;5.00;99.90;;;;;;5064703;28;20255;-79
2024/01/26 01:00:24;;;;;;;26.83;8.80;;;5.00;99.90;;;;;;5083574;28;20248;-78
2024/01/26 01:02:50;;;;;;;24.20;8.20;;;5.00;99.90;;;;;;5081591;28;20249;-77
2024/01/26 01:05:17;;;;;;;24.37;8.53;;;5.00;99.90;;;;;;5077119;28;20221;-79
2024/01/26 01:07:45;;;;;;;30.50;8.73;;;5.10;99.90;;;;;;5066415;28;20227;-79
2024/01/26 01:10:13;;;;;;;24.57;7.50;;;5.10;99.90;;;;;;5076938;28;20773;-80
2024/01/26 01:12:42;;;;;;;22.00;7.53;;;5.10;99.90;;;;;;5062634;28;20966;-80
2024/01/26 01:15:11;;;;;;;27.57;8.60;;;5.20;99.90;;;;;;5075437;28;20227;-80
2024/01/26 01:17:38;;;;;;;27.10;8.30;;;5.20;99.90;;;;;;5080009;28;20221;-78
2024/01/26 01:20:08;;;;;;;26.00;8.83;;;5.20;99.90;;;;;;5058856;28;20216;-79
2024/01/26 01:22:35;;;;;;;25.10;8.20;;;5.20;99.90;;;;;;5078407;28;20212;-79
2024/01/26 01:25:01;;;;;;;31.40;8.83;;;5.20;99.90;;;;;;5072315;28;20241;-78
2024/01/26 01:27:28;;;;;;;20.90;7.70;;;5.20;99.90;;;;;;5077591;28;20710;-79
2024/01/26 01:29:57;;;;;;;29.20;9.07;;;5.20;99.90;;;;;;5073558;28;20250;-78
2024/01/26 01:32:24;;;;;;;26.83;8.37;;;5.30;99.90;;;;;;5066335;28;20227;-79
2024/01/26 01:34:51;;;;;;;26.57;8.40;;;5.30;99.90;;;;;;5054991;28;20216;-79
2024/01/26 01:37:18;;;;;;;22.93;7.90;;;5.30;99.90;;;;;;5068907;28;20310;-79
2024/01/26 01:39:45;;;;;;;28.93;8.90;;;5.30;99.90;;;;;;5088819;28;20749;-78
2024/01/26 01:42:14;;;;;;;29.47;8.37;;;5.30;99.90;;;;;;5062431;28;20255;-79
2024/01/26 01:44:41;;;;;;;25.83;7.90;;;5.30;99.90;;;;;;5058206;28;20239;-78
2024/01/26 01:47:10;;;;;;;26.60;8.23;;;5.30;99.90;;;;;;5059859;28;20219;-78
2024/01/26 01:49:38;;;;;;;30.27;8.40;;;5.30;99.90;;;;;;5077027;28;20224;-78
2024/01/26 01:52:08;;;;;;;24.83;8.30;;;5.30;99.90;;;;;;5063413;28;20232;-78
2024/01/26 01:54:35;;;;;;;24.53;8.33;;;5.40;99.90;;;;;;5066481;28;20238;-77
2024/01/26 01:57:03;;;;;;;24.57;7.70;;;5.30;99.90;;;;;;5063121;28;20277;-78
2024/01/26 01:59:30;;;;;;;25.00;9.17;;;5.30;99.90;;;;;;5064964;28;20716;-78
2024/01/26 02:01:57;;;;;;;27.83;9.73;;;5.30;99.90;;;;;;5076315;28;20307;-78
2024/01/26 02:04:25;;;;;;;27.40;8.83;;;5.30;99.90;;;;;;5078311;28;20765;-79
2024/01/26 02:06:56;;;;;;;30.07;9.17;;;5.30;99.90;;;;;;5083153;28;20279;-80
2024/01/26 02:09:23;;;;;;;28.33;8.70;;;5.40;99.90;;;;;;5056603;28;21002;-81
2024/01/26 02:11:50;;;;;;;21.87;8.17;;;5.30;99.90;;;;;;5061701;28;20310;-80
2024/01/26 02:14:17;;;;;;;21.07;7.57;;;5.30;99.90;;;;;;5079643;28;20315;-80
2024/01/26 02:16:53;;;;;;;25.07;8.87;;;5.30;99.90;;;;;;5062302;28;20302;-79
2024/01/26 02:19:21;;;;;;;29.57;8.60;;;5.30;99.90;;;;;;5053967;28;20222;-81
2024/01/26 02:21:50;;;;;;;25.30;8.27;;;5.30;99.90;;;;;;5058765;28;20240;-79
2024/01/26 02:24:19;;;;;;;27.17;8.40;;;5.30;99.90;;;;;;5075648;28;20229;-79
2024/01/26 02:26:46;;;;;;;23.63;8.97;;;5.30;99.90;;;;;;5054943;28;20229;-79
2024/01/26 02:29:12;;;;;;;24.47;9.07;;;5.30;99.90;;;;;;5054096;28;20220;-77
2024/01/26 02:31:39;;;;;;;26.97;8.50;;;5.30;99.90;;;;;;5057788;28;20222;-80
2024/01/26 02:34:07;;;;;;;30.23;9.03;;;5.30;99.90;;;;;;5061564;28;20883;-78
2024/01/26 02:36:36;;;;;;;24.13;8.13;;;5.30;99.90;;;;;;5055460;28;20278;-79
2024/01/26 02:39:05;;;;;;;22.57;8.43;;;5.30;99.90;;;;;;5058712;28;20219;-78
2024/01/26 02:41:33;;;;;;;28.73;9.70;;;5.30;99.90;;;;;;5078728;28;20335;-79
2024/01/26 02:44:01;;;;;;;26.50;9.40;;;5.30;99.90;;;;;;5059845;28;20297;-78
2024/01/26 02:46:28;;;;;;;32.10;8.70;;;5.30;99.90;;;;;;5059860;28;20279;-79
2024/01/26 02:48:55;;;;;;;29.63;9.63;;;5.30;99.90;;;;;;5058723;28;20232;-78
2024/01/26 02:51:22;;;;;;;30.90;8.47;;;5.30;99.90;;;;;;5062741;28;20224;-79
2024/01/26 02:53:49;;;;;;;28.03;8.47;;;5.30;99.90;;;;;;5056991;28;20890;-81
2024/01/26 02:56:16;;;;;;;25.83;8.23;;;5.30;99.90;;;;;;5076372;28;20595;-80
2024/01/26 02:58:44;;;;;;;29.43;8.77;;;5.30;99.90;;;;;;5083872;28;20313;-80
2024/01/26 03:01:11;;;;;;;29.37;10.40;;;5.30;99.90;;;;;;5065034;28;20231;-80
2024/01/26 03:03:38;;;;;;;35.93;9.97;;;5.30;99.90;;;;;;5060288;28;20888;-78
2024/01/26 03:06:06;;;;;;;24.87;9.30;;;5.30;99.90;;;;;;5075243;28;20227;-78
2024/01/26 03:08:33;;;;;;;30.57;9.93;;;5.30;99.90;;;;;;5070789;28;20231;-79
2024/01/26 03:11:00;;;;;;;30.90;9.93;;;5.30;99.90;;;;;;5079407;28;20265;-80
2024/01/26 03:13:27;;;;;;;28.43;9.53;;;5.30;99.90;;;;;;5076025;28;20231;-79
2024/01/26 03:15:55;;;;;;;24.30;9.23;;;5.30;99.90;;;;;;5080772;28;21236;-80
2024/01/26 03:18:22;;;;;;;27.73;9.53;;;5.30;99.90;;;;;;5066555;28;20221;-79
2024/01/26 03:20:49;;;;;;;28.93;9.60;;;5.30;99.90;;;;;;5073357;28;20232;-79
2024/01/26 03:23:16;;;;;;;36.87;10.93;;;5.30;99.90;;;;;;5079741;28;20231;-79
2024/01/26 03:25:43;;;;;;;32.10;10.17;;;5.30;99.90;;;;;;5078775;28;20262;-80
2024/01/26 03:28:11;;;;;;;31.37;10.13;;;5.40;99.90;;;;;;5053379;28;20227;-79
2024/01/26 03:30:38;;;;;;;24.67;9.77;;;5.30;99.90;;;;;;5075929;28;20273;-78
2024/01/26 03:33:07;;;;;;;32.77;10.03;;;5.30;99.90;;;;;;5077767;28;20215;-79
2024/01/26 03:35:34;;;;;;;29.70;9.60;;;5.30;99.90;;;;;;5055101;28;20251;-78
2024/01/26 03:38:01;;;;;;;32.17;9.93;;;5.30;99.90;;;;;;5074005;28;20220;-79
2024/01/26 03:40:28;;;;;;;34.50;10.17;;;5.40;99.90;;;;;;5079103;28;20230;-79
2024/01/26 03:42:55;;;;;;;30.00;10.37;;;5.30;99.90;;;;;;5077379;28;20773;-79
2024/01/26 03:45:22;;;;;;;29.13;10.10;;;5.40;99.90;;;;;;5054036;28;20951;-79
2024/01/26 03:47:49;;;;;;;26.17;9.53;;;5.30;99.90;;;;;;5059584;28;20319;-77
2024/01/26 03:50:17;;;;;;;30.33;10.43;;;5.40;99.90;;;;;;5062738;28;20212;-79
2024/01/26 03:52:44;;;;;;;21.87;9.87;;;5.40;99.90;;;;;;5052552;28;20278;-77
2024/01/26 03:55:11;;;;;;;24.63;9.63;;;5.40;99.90;;;;;;5057806;28;20251;-79
2024/01/26 03:57:38;;;;;;;32.77;10.63;;;5.40;99.90;;;;;;5056505;28;20259;-78
2024/01/26 04:00:06;;;;;;;31.53;11.53;;;5.40;99.90;;;;;;5060439;28;20224;-78
2024/01/26 04:02:39;;;;;;;22.43;9.53;;;5.40;99.90;;;;;;5077512;28;20233;-79
2024/01/26 04:05:06;;;;;;;30.33;10.57;;;5.40;99.90;;;;;;5057269;28;20308;-79
2024/01/26 04:07:35;;;;;;;29.40;10.37;;;5.40;99.90;;;;;;5054284;28;20240;-79
2024/01/26 04:10:02;;;;;;;26.87;10.17;;;5.50;99.90;;;;;;5077786;28;20311;-79
2024/01/26 04:12:28;;;;;;;28.10;10.57;;;5.50;99.90;;;;;;5072839;28;20810;-79
2024/01/26 04:14:55;;;;;;;30.30;10.40;;;5.40;99.90;;;;;;5060876;28;20758;-79
2024/01/26 04:17:22;;;;;;;28.80;11.53;;;5.50;99.90;;;;;;5059953;28;20596;-79
2024/01/26 04:19:49;;;;;;;29.00;10.83;;;5.50;99.90;;;;;;5054102;28;20267;-79
2024/01/26 04:22:15;;;;;;;25.63;10.13;;;5.50;99.90;;;;;;5074216;28;20300;-77
2024/01/26 04:24:44;;;;;;;25.17;11.10;;;5.50;99.90;;;;;;5056596;28;20319;-78
2024/01/26 04:27:10;;;;;;;30.37;11.07;;;5.50;99.90;;;;;;5075136;28;20255;-77
2024/01/26 04:29:37;;;;;;;29.30;12.23;;;5.50;99.90;;;;;;5081696;28;20271;-78
2024/01/26 04:32:05;;;;;;;30.13;10.97;;;5.50;99.90;;;;;;5057259;28;20247;-79
2024/01/26 04:34:31;;;;;;;27.13;11.77;;;5.50;99.90;;;;;;5078185;28;20732;-79
2024/01/26 04:36:58;;;;;;;24.40;11.13;;;5.50;99.90;;;;;;5075499;28;20250;-77
2024/01/26 04:39:25;;;;;;;26.53;11.13;;;5.50;99.90;;;;;;5080870;28;20301;-79
2024/01/26 04:41:53;;;;;;;23.80;11.03;;;5.50;99.90;;;;;;5054341;28;20306;-78
2024/01/26 04:44:19;;;;;;;26.50;11.70;;;5.50;99.90;;;;;;5076751;28;20243;-78
2024/01/26 04:46:46;;;;;;;29.97;11.83;;;5.50;99.90;;;;;;5074971;28;20294;-78
2024/01/26 04:49:13;;;;;;;25.93;11.70;;;5.50;99.90;;;;;;5073007;28;20225;-79
2024/01/26 04:51:40;;;;;;;25.57;12.00;;;5.50;99.90;;;;;;5066827;28;20234;-78
2024/01/26 04:54:07;;;;;;;30.23;11.93;;;5.50;99.90;;;;;;5079972;28;20315;-78
2024/01/26 04:56:34;;;;;;;31.50;12.47;;;5.50;99.90;;;;;;5076789;28;20322;-79
2024/01/26 04:59:02;;;;;;;27.53;11.83;;;5.60;99.90;;;;;;5054022;28;20319;-79
2024/01/26 05:01:29;;;;;;;24.27;12.43;;;5.60;99.90;;;;;;5054285;28;20229;-79
2024/01/26 05:03:56;;;;;;;29.20;12.43;;;5.60;99.90;;;;;;5067996;28;20251;-79
2024/01/26 05:06:23;;;;;;;67.63;15.53;;;5.60;99.90;;;;;;5058750;28;20224;-79
2024/01/26 05:08:51;;;;;;;27.77;12.60;;;5.60;99.90;;;;;;5076249;28;20599;-79
2024/01/26 05:11:19;;;;;;;52.33;14.60;;;5.70;99.90;;;;;;5055882;28;20227;-79
2024/01/26 05:13:46;;;;;;;62.73;14.00;;;5.70;99.90;;;;;;5056010;28;20216;-82
2024/01/26 05:16:14;;;;;;;39.93;12.60;;;5.70;99.90;;;;;;5054737;28;20231;-79
2024/01/26 05:18:41;;;;;;;53.93;14.33;;;5.70;99.90;;;;;;5055731;28;20227;-79
2024/01/26 05:21:08;;;;;;;87.43;15.33;;;5.70;99.90;;;;;;5059741;28;20320;-80
2024/01/26 05:23:35;;;;;;;34.00;13.50;;;5.70;99.90;;;;;;5067804;28;20236;-79
2024/01/26 05:26:02;;;;;;;59.10;14.97;;;5.70;99.90;;;;;;5079019;28;20223;-81
2024/01/26 05:28:29;;;;;;;51.70;14.57;;;5.70;99.90;;;;;;5061928;28;20223;-80
2024/01/26 05:30:56;;;;;;;43.47;14.37;;;5.70;99.90;;;;;;5055744;28;20248;-82
2024/01/26 05:33:25;;;;;;;44.53;14.63;;;5.80;99.90;;;;;;5072345;28;20321;-84
2024/01/26 05:35:53;;;;;;;40.53;14.63;;;5.80;99.90;;;;;;5061844;28;20711;-82
2024/01/26 05:38:20;;;;;;;45.87;15.13;;;5.80;99.90;;;;;;5063580;28;20229;-82
2024/01/26 05:40:47;;;;;;;48.43;16.00;;;5.80;99.90;;;;;;5076574;28;20307;-83
2024/01/26 05:43:14;;;;;;;42.97;16.27;;;5.80;99.90;;;;;;5062651;28;20235;-81
2024/01/26 05:45:42;;;;;;;39.07;15.10;;;5.80;99.90;;;;;;5062144;28;20220;-83
2024/01/26 05:48:09;;;;;;;33.47;14.90;;;5.80;99.90;;;;;;5080295;28;20974;-83
2024/01/26 05:50:38;;;;;;;40.67;15.20;;;5.80;99.90;;;;;;5062385;28;20237;-81
2024/01/26 05:53:05;;;;;;;40.30;15.33;;;5.80;99.90;;;;;;5080036;28;20402;-81
2024/01/26 05:55:32;;;;;;;39.97;14.80;;;5.80;99.90;;;;;;5066331;28;20220;-82
2024/01/26 05:57:59;;;;;;;37.10;14.50;;;5.80;99.90;;;;;;5066080;28;20309;-82
2024/01/26 06:00:27;;;;;;;43.47;16.73;;;5.80;99.90;;;;;;5062521;28;20219;-84
2024/01/26 06:02:54;;;;;;;41.17;16.43;;;5.80;99.90;;;;;;5080682;28;20242;-82
2024/01/26 06:05:21;;;;;;;35.67;15.43;;;5.90;99.90;;;;;;5079404;28;20223;-81
2024/01/26 06:07:49;;;;;;;36.13;15.60;;;5.90;99.90;;;;;;5082066;28;20220;-82
2024/01/26 06:10:17;;;;;;;34.13;14.93;;;5.90;99.90;;;;;;5063728;28;20294;-82
2024/01/26 06:12:44;;;;;;;42.43;15.80;;;5.90;99.90;;;;;;5063113;28;20656;-82
2024/01/26 06:15:11;;;;;;;34.00;16.47;;;5.90;99.90;;;;;;5062348;28;20221;-83
2024/01/26 06:17:39;;;;;;;34.33;14.60;;;6.00;99.90;;;;;;5076899;28;20235;-84
2024/01/26 06:20:07;;;;;;;35.70;16.00;;;6.00;99.90;;;;;;5059625;28;20224;-82
2024/01/26 06:22:37;;;;;;;42.70;15.40;;;6.00;99.90;;;;;;5064090;28;20774;-84
2024/01/26 06:25:06;;;;;;;34.50;14.63;;;6.00;99.90;;;;;;5064882;28;20979;-84
2024/01/26 06:27:33;;;;;;;34.90;15.17;;;6.10;99.90;;;;;;5082499;28;20237;-83
2024/01/26 06:30:00;;;;;;;33.83;15.20;;;6.10;99.90;;;;;;5081204;28;20224;-81
2024/01/26 06:32:27;;;;;;;35.47;15.50;;;6.10;99.90;;;;;;5060635;28;20263;-84
2024/01/26 06:34:54;;;;;;;32.33;15.00;;;6.10;99.90;;;;;;5082069;28;20294;-81
2024/01/26 06:37:21;;;;;;;34.90;15.07;;;6.10;99.90;;;;;;5080510;28;20854;-81
2024/01/26 06:39:48;;;;;;;33.73;15.40;;;6.20;99.90;;;;;;5085745;28;20225;-82
2024/01/26 06:42:21;;;;;;;31.20;14.60;;;6.10;99.90;;;;;;5082647;28;20233;-83
2024/01/26 06:44:48;;;;;;;31.93;15.37;;;6.10;99.90;;;;;;5062211;28;20699;-82
2024/01/26 06:47:14;;;;;;;36.47;15.70;;;6.20;99.90;;;;;;5066551;28;20236;-83
2024/01/26 06:49:41;;;;;;;43.63;19.77;;;6.20;99.90;;;;;;5080482;28;20271;-82
2024/01/26 06:52:08;;;;;;;50.17;21.07;;;6.20;99.90;;;;;;5087485;28;20823;-82
2024/01/26 06:54:35;;;;;;;36.87;18.63;;;6.20;99.90;;;;;;5083285;28;20237;-83
2024/01/26 06:57:02;;;;;;;38.10;19.57;;;6.20;99.90;;;;;;5072729;28;20229;-82
2024/01/26 06:59:30;;;;;;;39.03;19.70;;;6.20;99.90;;;;;;5061044;28;20266;-83
2024/01/26 07:01:57;;;;;;;37.87;18.53;;;6.30;99.90;;;;;;5038079;28;20222;-84
2024/01/26 07:04:24;;;;;;;34.97;17.10;;;6.30;99.90;;;;;;5074989;28;20808;-82
2024/01/26 07:06:51;;;;;;;36.07;17.13;;;6.30;99.90;;;;;;5060575;28;20746;-82
2024/01/26 07:09:17;;;;;;;36.67;18.47;;;6.30;99.90;;;;;;5066158;28;20240;-81
2024/01/26 07:11:44;;;;;;;35.53;16.20;;;6.30;99.90;;;;;;5063219;28;20794;-82
2024/01/26 07:14:11;;;;;;;31.57;16.27;;;6.30;99.90;;;;;;5062447;28;20223;-82
2024/01/26 07:16:39;;;;;;;30.93;14.87;;;6.30;99.90;;;;;;5060811;28;20897;-84
2024/01/26 07:19:06;;;;;;;29.30;14.87;;;6.30;99.90;;;;;;5080691;28;20233;-82
2024/01/26 07:21:32;;;;;;;33.67;15.47;;;6.30;99.90;;;;;;5081324;28;20230;-84
2024/01/26 07:23:59;;;;;;;32.10;15.60;;;6.40;99.90;;;;;;5063178;28;20678;-82
2024/01/26 07:26:26;;;;;;;33.50;15.30;;;6.40;99.90;;;;;;5059782;28;20854;-82
2024/01/26 07:28:52;;;;;;;27.40;13.87;;;6.40;99.90;;;;;;5071129;28;20230;-83
2024/01/26 07:31:19;;;;;;;30.43;15.23;;;6.40;99.90;;;;;;5059019;28;20241;-84
2024/01/26 07:33:47;;;;;;;37.67;16.20;;;6.40;99.90;;;;;;5061764;28;20740;-81
2024/01/26 07:36:14;;;;;;;32.87;15.60;;;6.50;99.90;;;;;;5050328;28;20234;-81
2024/01/26 07:38:41;;;;;;;33.47;16.10;;;6.50;99.90;;;;;;5059174;28;20321;-81
2024/01/26 07:41:07;;;;;;;30.53;14.97;;;6.50;99.90;;;;;;5058872;28;20300;-81
2024/01/26 07:43:34;;;;;;;26.07;15.20;;;6.50;99.90;;;;;;5060201;28;20381;-80
2024/01/26 07:46:01;;;;;;;28.13;14.90;;;6.50;99.90;;;;;;5080106;28;20232;-80
2024/01/26 07:48:27;;;;;;;32.20;16.17;;;6.50;99.90;;;;;;5069110;28;20308;-80
2024/01/26 07:50:55;;;;;;;31.13;15.90;;;6.60;99.90;;;;;;5086166;28;20734;-80
2024/01/26 07:53:22;;;;;;;33.73;17.13;;;6.60;99.90;;;;;;5086879;28;20257;-82
2024/01/26 07:55:50;;;;;;;34.57;15.77;;;6.60;99.90;;;;;;5084518;28;20387;-82
2024/01/26 07:58:17;;;;;;;32.43;16.90;;;6.60;99.90;;;;;;5066238;28;20302;-81
2024/01/26 08:00:44;;;;;;;35.80;16.30;;;6.70;99.90;;;;;;5092238;28;20305;-83
2024/01/26 08:03:11;;;;;;;31.73;16.23;;;6.70;99.90;;;;;;5083654;28;20238;-82
2024/01/26 08:05:38;;;;;;;28.80;16.77;;;6.70;99.90;;;;;;5079431;28;20303;-81
2024/01/26 08:08:07;;;;;;;27.90;16.30;;;6.70;99.90;;;;;;5059573;28;21403;-81
2024/01/26 08:10:33;;;;;;;33.53;17.87;;;6.80;99.90;;;;;;5078024;28;20374;-82
2024/01/26 08:13:00;;;;;;;32.80;17.60;;;6.80;99.90;;;;;;5058726;28;20229;-81
2024/01/26 08:15:27;;;;;;;34.53;17.93;;;6.80;99.90;;;;;;5082215;28;20226;-80
2024/01/26 08:17:54;;;;;;;29.73;16.83;;;6.90;99.90;;;;;;5057578;28;20230;-82
2024/01/26 08:20:21;;;;;;;34.73;17.80;;;6.90;99.90;;;;;;5062283;28;20224;-81
2024/01/26 08:22:47;;;;;;;32.50;18.53;;;6.90;99.90;;;;;;5060456;28;20237;-81
2024/01/26 08:25:15;;;;;;;27.93;17.83;;;7.00;99.90;;;;;;5063626;28;20217;-81
2024/01/26 08:27:42;;;;;;;31.77;18.43;;;7.00;99.90;;;;;;5081614;28;20321;-82
2024/01/26 08:30:09;;;;;;;29.07;17.87;;;7.00;99.90;;;;;;5067488;28;20217;-81
2024/01/26 08:32:36;;;;;;;32.17;19.00;;;7.10;99.90;;;;;;5060279;28;20237;-81
2024/01/26 08:35:03;;;;;;;29.87;18.17;;;7.10;99.90;;;;;;5078882;28;20836;-82
2024/01/26 08:37:30;;;;;;;30.57;18.57;;;7.20;99.90;;;;;;5086037;28;20343;-81
2024/01/26 08:39:57;;;;;;;29.10;17.97;;;7.20;99.90;;;;;;5066043;28;20498;-81
2024/01/26 08:42:25;;;;;;;28.23;17.50;;;7.30;99.90;;;;;;5064220;28;20222;-82
2024/01/26 08:44:52;;;;;;;27.73;18.30;;;7.30;99.90;;;;;;5060914;28;20624;-80
2024/01/26 08:47:19;;;;;;;31.13;18.50;;;7.30;99.90;;;;;;5062710;28;20250;-82
2024/01/26 08:49:45;;;;;;;32.20;18.43;;;7.40;99.90;;;;;;5081602;28;20242;-83
2024/01/26 08:52:12;;;;;;;32.77;18.23;;;7.40;99.90;;;;;;5066113;28;20225;-83
2024/01/26 08:54:39;;;;;;;27.37;18.40;;;7.50;99.90;;;;;;5066968;28;20260;-81
2024/01/26 08:57:06;;;;;;;26.43;17.33;;;7.50;99.90;;;;;;5042826;28;20248;-85
2024/01/26 08:59:34;;;;;;;27.33;18.50;;;7.60;99.90;;;;;;5045126;28;20270;-84
2024/01/26 09:02:01;;;;;;;29.57;17.70;;;7.60;99.90;;;;;;5043191;28;20293;-84
2024/01/26 09:04:28;;;;;;;30.57;17.67;;;7.60;99.90;;;;;;5039367;28;20711;-83
2024/01/26 09:06:55;;;;;;;35.50;20.10;;;7.70;99.90;;;;;;5042039;28;20223;-83
2024/01/26 09:09:22;;;;;;;33.50;18.53;;;7.70;99.90;;;;;;5045281;28;20262;-84
2024/01/26 09:11:48;;;;;;;31.50;18.30;;;7.70;99.90;;;;;;5047053;28;20239;-84
2024/01/26 09:14:16;;;;;;;30.17;18.93;;;7.70;99.90;;;;;;5044661;28;20320;-84
2024/01/26 09:16:50;;;;;;;38.70;19.33;;;7.80;99.90;;;;;;5046451;28;20224;-84
2024/01/26 09:19:17;;;;;;;30.40;17.80;;;7.80;99.90;;;;;;5047189;28;20224;-84
2024/01/26 09:21:43;;;;;;;33.27;19.33;;;7.80;99.90;;;;;;5046963;28;20905;-84
2024/01/26 09:24:10;;;;;;;33.90;18.20;;;7.80;99.90;;;;;;5069616;28;20223;-83
2024/01/26 09:26:39;;;;;;;28.77;17.30;;;7.90;99.90;;;;;;5086682;28;20229;-84
2024/01/26 09:29:06;;;;;;;29.43;18.73;;;7.90;99.90;;;;;;5092086;28;20229;-83
2024/01/26 09:31:33;;;;;;;30.37;17.93;;;7.90;99.90;;;;;;5093232;28;20736;-84
2024/01/26 09:34:01;;;;;;;32.03;16.90;;;7.90;99.90;;;;;;5092967;28;20312;-84
2024/01/26 09:36:28;;;;;;;40.17;17.77;;;8.00;99.90;;;;;;5091675;28;20302;-84
2024/01/26 09:38:55;;;;;;;30.83;16.73;;;7.90;99.90;;;;;;5092500;28;20258;-84
2024/01/26 09:41:22;;;;;;;33.33;18.00;;;8.00;99.90;;;;;;5091964;28;20264;-83
2024/01/26 09:43:48;;;;;;;25.23;15.80;;;8.00;99.90;;;;;;5092376;28;20245;-85
2024/01/26 09:46:15;;;;;;;30.80;17.07;;;8.00;99.90;;;;;;5091943;28;20279;-84
2024/01/26 09:48:43;;;;;;;24.50;15.73;;;8.00;99.90;;;;;;5092681;28;20327;-83
2024/01/26 09:51:12;;;;;;;26.50;15.67;;;8.00;99.90;;;;;;5111120;28;20226;-83
2024/01/26 09:53:39;;;;;;;25.50;14.80;;;8.00;99.90;;;;;;5111115;28;20230;-83
2024/01/26 09:56:08;;;;;;;24.13;14.83;;;8.10;99.90;;;;;;5088624;28;20246;-82
2024/01/26 09:58:35;;;;;;;24.40;14.63;;;8.10;99.90;;;;;;5080799;28;20849;-82
2024/01/26 10:01:02;;;;;;;21.93;14.40;;;8.10;99.90;;;;;;5061379;28;20291;-82
2024/01/26 10:03:28;;;;;;;27.30;13.80;;;8.10;99.90;;;;;;5067005;28;21652;-83
2024/01/26 10:05:55;;;;;;;21.80;13.70;;;8.10;99.90;;;;;;5055664;28;20406;-82
2024/01/26 10:08:23;;;;;;;21.03;12.80;;;8.20;99.90;;;;;;5059944;28;20239;-84
2024/01/26 10:10:50;;;;;;;19.53;11.80;;;8.20;99.90;;;;;;5061982;28;20318;-83
2024/01/26 10:13:17;;;;;;;19.23;12.67;;;8.20;99.90;;;;;;5063211;28;20242;-82
2024/01/26 10:15:44;;;;;;;21.13;12.30;;;8.20;99.90;;;;;;5063692;28;20256;-83
2024/01/26 10:18:11;;;;;;;17.20;11.60;;;8.20;99.90;;;;;;5076480;28;20227;-83
2024/01/26 10:20:38;;;;;;;16.83;11.60;;;8.20;99.90;;;;;;5081343;28;20234;-83
2024/01/26 10:23:05;;;;;;;14.27;10.53;;;8.30;99.90;;;;;;5071139;28;20210;-83
2024/01/26 10:25:35;;;;;;;14.73;10.47;;;8.30;99.90;;;;;;5065420;28;20235;-83
2024/01/26 10:28:09;;;;;;;15.87;11.03;;;8.30;99.90;;;;;;5062718;28;20301;-82
2024/01/26 10:30:42;;;;;;;14.20;9.40;;;8.30;99.90;;;;;;5054696;28;20272;-82
2024/01/26 10:33:09;;;;;;;13.77;9.63;;;8.40;99.90;;;;;;5067839;28;20272;-83
2024/01/26 10:35:36;;;;;;;13.13;10.00;;;8.40;99.90;;;;;;5058105;28;20262;-83
2024/01/26 10:38:05;;;;;;;13.93;9.67;;;8.40;99.90;;;;;;5068360;28;20219;-83
2024/01/26 10:40:34;;;;;;;11.63;8.60;;;8.40;99.90;;;;;;5059809;28;20250;-83
2024/01/26 10:43:01;;;;;;;14.50;9.13;;;8.40;99.90;;;;;;5062441;28;20862;-84
2024/01/26 10:45:29;;;;;;;12.23;8.87;;;8.50;99.90;;;;;;5064129;28;20239;-83
2024/01/26 10:47:58;;;;;;;11.53;8.30;;;8.50;99.90;;;;;;5059085;28;20623;-84
2024/01/26 10:50:25;;;;;;;11.13;8.17;;;8.50;99.90;;;;;;5067407;28;20289;-84
2024/01/26 10:52:54;;;;;;;12.13;8.40;;;8.50;99.90;;;;;;5071607;28;20234;-83
2024/01/26 10:55:22;;;;;;;11.57;7.57;;;8.60;99.90;;;;;;5070764;28;20231;-84
2024/01/26 10:57:50;;;;;;;8.80;7.73;;;8.60;99.90;;;;;;5071587;28;20705;-83
2024/01/26 11:00:17;;;;;;;12.50;7.57;;;8.60;99.90;;;;;;5070872;28;20260;-83
2024/01/26 11:02:45;;;;;;;11.07;6.97;;;8.60;99.90;;;;;;5070460;28;20466;-85
2024/01/26 11:05:13;;;;;;;9.27;6.67;;;8.60;99.90;;;;;;5069124;28;20287;-83
2024/01/26 11:07:40;;;;;;;7.47;6.23;;;8.70;99.90;;;;;;5088108;28;20273;-83
2024/01/26 11:10:12;;;;;;;8.40;6.27;;;8.70;99.90;;;;;;5060965;28;20321;-82
2024/01/26 11:12:39;;;;;;;6.83;6.00;;;8.70;99.90;;;;;;5056276;28;20239;-82
2024/01/26 11:15:13;;;;;;;7.33;5.07;;;8.80;99.90;;;;;;5049320;28;20323;-81
2024/01/26 11:17:50;;;;;;;6.50;5.07;;;8.80;99.90;;;;;;5069848;28;20226;-82
2024/01/26 11:20:25;;;;;;;6.20;5.13;;;8.90;99.90;;;;;;5068757;28;20246;-83
2024/01/26 11:22:59;;;;;;;6.17;5.37;;;8.90;99.90;;;;;;5069935;28;20222;-82
2024/01/26 11:25:26;;;;;;;6.20;5.20;;;8.90;99.90;;;;;;5057025;28;20238;-82
2024/01/26 11:28:01;;;;;;;6.93;5.13;;;9.00;99.90;;;;;;5050560;28;20297;-82
2024/01/26 11:30:29;;;;;;;6.03;4.80;;;9.00;99.90;;;;;;5049210;28;20238;-81
2024/01/26 11:32:56;;;;;;;6.27;4.70;;;9.00;99.90;;;;;;5049977;28;20231;-82
2024/01/26 11:35:24;;;;;;;5.97;4.80;;;9.10;99.90;;;;;;5049267;28;20230;-82
2024/01/26 11:37:52;;;;;;;6.33;5.47;;;9.00;99.90;;;;;;5050590;28;20231;-82
2024/01/26 11:40:20;;;;;;;7.40;4.80;;;9.10;99.90;;;;;;5049027;28;20251;-82
2024/01/26 11:42:47;;;;;;;5.17;4.67;;;9.10;99.90;;;;;;5056280;28;20697;-82
2024/01/26 11:45:37;;;;;;;4.90;4.40;;;9.10;99.90;;;;;;5087401;28;20256;-83
2024/01/26 11:48:08;;;;;;;6.03;4.70;;;9.20;99.90;;;;;;5071487;28;20229;-83
2024/01/26 11:50:35;;;;;;;5.30;4.80;;;9.20;99.90;;;;;;5066488;28;20229;-84
2024/01/26 11:53:02;;;;;;;6.23;4.53;;;9.20;99.90;;;;;;5065812;28;20848;-84
2024/01/26 11:55:29;;;;;;;5.77;4.60;;;9.20;99.90;;;;;;5064755;28;20230;-84
2024/01/26 11:57:56;;;;;;;4.67;4.20;;;9.20;99.90;;;;;;5068760;28;20314;-84
2024/01/26 12:00:23;;;;;;;3.47;3.17;;;9.20;99.90;;;;;;5066836;28;20255;-83
2024/01/26 12:02:50;;;;;;;3.87;1.80;;;9.20;99.90;;;;;;5067434;28;20250;-83
2024/01/26 12:05:18;;;;;;;2.87;1.43;;;9.20;99.90;;;;;;5065319;28;20238;-82
2024/01/26 12:07:45;;;;;;;5.07;1.50;;;9.20;99.90;;;;;;5071184;28;20253;-83
2024/01/26 12:10:14;;;;;;;4.10;1.60;;;9.20;99.90;;;;;;5090617;28;20250;-84
2024/01/26 12:12:41;;;;;;;8.27;1.83;;;9.10;99.90;;;;;;5068662;28;20249;-84
2024/01/26 12:15:09;;;;;;;7.53;1.77;;;9.10;99.90;;;;;;5066663;28;20226;-83
2024/01/26 12:17:36;;;;;;;8.23;2.33;;;9.00;99.90;;;;;;5081615;28;20727;-83
2024/01/26 12:20:08;;;;;;;8.57;2.27;;;8.90;99.90;;;;;;5066910;28;20977;-83
2024/01/26 12:22:36;;;;;;;11.03;2.27;;;8.90;99.90;;;;;;5093406;28;20337;-81
2024/01/26 12:25:05;;;;;;;13.60;2.57;;;8.80;99.90;;;;;;5070642;28;20259;-80
2024/01/26 12:27:32;;;;;;;11.00;2.30;;;8.70;99.90;;;;;;5068619;28;20241;-81
2024/01/26 12:29:59;;;;;;;14.20;2.87;;;8.60;99.90;;;;;;5067006;28;20344;-81
2024/01/26 12:32:26;;;;;;;10.40;3.40;;;8.50;99.90;;;;;;5060004;28;20525;-81
2024/01/26 12:34:53;;;;;;;14.13;3.20;;;8.40;99.90;;;;;;5088673;28;20321;-81
2024/01/26 12:37:20;;;;;;;13.93;2.80;;;8.40;99.90;;;;;;5066416;28;20838;-83
2024/01/26 12:39:48;;;;;;;15.97;2.87;;;8.20;99.90;;;;;;5074317;28;20918;-83
2024/01/26 12:42:16;;;;;;;11.40;2.90;;;8.20;99.90;;;;;;5068799;28;20227;-83
2024/01/26 12:44:43;;;;;;;8.60;2.60;;;8.10;99.90;;;;;;5065887;28;20935;-81